Time;durP1;ratioP1;P1;durP2;ratioP2;P2;SDS_P1;SDS_P2;PMS_P1;PMS_P2;Temp;Humidity;BMP_temperature;BMP_pressure;BME280_temperature;BME280_humidity;BME280_pressure;Samples;Min_cycle;Max_cycle;Signal;HPM_P1;HPM_P2
2022/08/30 00:01:15;;;;;;;13.07;8.47;;;;;;;19.28;100.00;100268.46;1713978;83;20917;-65
2022/08/30 00:03:44;;;;;;;15.85;8.90;;;;;;;19.15;100.00;100269.06;1712106;83;21957;-64
2022/08/30 00:06:13;;;;;;;17.83;9.70;;;;;;;19.15;100.00;100276.98;1706402;84;20970;-56
2022/08/30 00:08:41;;;;;;;18.73;9.03;;;;;;;19.16;100.00;100274.62;1706643;84;21305;-55
2022/08/30 00:11:11;;;;;;;16.07;9.40;;;;;;;19.19;100.00;100273.34;1706461;84;21384;-58
2022/08/30 00:13:41;;;;;;;16.42;9.25;;;;;;;19.22;100.00;100268.11;1706292;83;21054;-60
2022/08/30 00:16:09;;;;;;;16.30;9.00;;;;;;;19.16;100.00;100268.02;1706217;84;21476;-56
2022/08/30 00:18:37;;;;;;;14.33;8.93;;;;;;;19.11;100.00;100273.22;1706741;84;20910;-55
2022/08/30 00:21:05;;;;;;;14.53;9.27;;;;;;;19.06;100.00;100275.79;1706215;84;21239;-58
2022/08/30 00:23:32;;;;;;;18.03;9.00;;;;;;;19.07;100.00;100269.98;1705998;84;21092;-56
2022/08/30 00:26:01;;;;;;;13.53;9.03;;;;;;;19.10;100.00;100277.44;1706239;84;21021;-63
2022/08/30 00:28:29;;;;;;;16.33;9.70;;;;;;;19.04;100.00;100273.89;1706241;84;20918;-56
2022/08/30 00:30:56;;;;;;;13.67;9.10;;;;;;;18.94;100.00;100277.17;1706219;84;21073;-57
2022/08/30 00:33:23;;;;;;;13.13;8.07;;;;;;;18.85;100.00;100276.45;1706039;84;22100;-57
2022/08/30 00:35:52;;;;;;;14.33;9.63;;;;;;;18.78;100.00;100281.88;1706376;84;21059;-56
2022/08/30 00:38:20;;;;;;;12.63;9.40;;;;;;;18.76;100.00;100281.33;1705855;84;21017;-64
2022/08/30 00:40:47;;;;;;;15.40;9.50;;;;;;;18.74;100.00;100275.99;1706326;84;21044;-56
2022/08/30 00:43:22;;;;;;;17.40;9.23;;;;;;;18.87;100.00;100273.08;1706132;84;21083;-56
2022/08/30 00:45:50;;;;;;;14.43;9.53;;;;;;;18.90;100.00;100275.22;1706652;84;21765;-56
2022/08/30 00:48:17;;;;;;;13.23;8.70;;;;;;;18.87;100.00;100273.08;1706109;84;21057;-57
2022/08/30 00:50:48;;;;;;;15.67;9.23;;;;;;;18.80;100.00;100278.50;1706434;83;21063;-62
2022/08/30 00:53:19;;;;;;;16.63;9.77;;;;;;;18.83;100.00;100272.75;1706517;84;21844;-56
2022/08/30 00:55:47;;;;;;;13.63;9.90;;;;;;;18.80;100.00;100281.66;1706451;84;21475;-57
2022/08/30 00:58:20;;;;;;;11.87;9.20;;;;;;;18.82;100.00;100279.56;1706726;84;21175;-60
2022/08/30 01:00:49;;;;;;;14.77;10.27;;;;;;;18.86;100.00;100281.49;1706385;84;20969;-64
2022/08/30 01:03:17;;;;;;;14.73;9.63;;;;;;;18.90;100.00;100277.86;1706078;84;20985;-56
2022/08/30 01:05:45;;;;;;;14.13;8.83;;;;;;;18.88;100.00;100280.75;1714481;83;20953;-57
2022/08/30 01:08:14;;;;;;;13.57;9.70;;;;;;;18.98;100.00;100283.28;1714105;83;20933;-64
2022/08/30 01:10:42;;;;;;;13.10;9.70;;;;;;;18.98;100.00;100284.11;1713794;83;22095;-57
2022/08/30 01:13:12;;;;;;;19.27;9.60;;;;;;;18.96;100.00;100284.84;1714230;83;20960;-56
2022/08/30 01:15:41;;;;;;;12.63;10.23;;;;;;;18.95;100.00;100283.25;1714886;83;21051;-56
2022/08/30 01:18:10;;;;;;;13.17;9.87;;;;;;;18.95;100.00;100284.58;1715151;83;20970;-64
2022/08/30 01:21:16;;;;;;;15.03;9.83;;;;;;;18.89;100.00;100289.47;1713662;83;21067;-56
2022/08/30 01:23:44;;;;;;;15.00;9.73;;;;;;;18.86;100.00;100296.02;1715340;83;21238;-58
2022/08/30 01:26:11;;;;;;;14.13;10.13;;;;;;;18.89;100.00;100289.47;1686092;83;21500;-57
2022/08/30 01:28:39;;;;;;;15.83;9.90;;;;;;;18.78;100.00;100291.13;1686940;83;21467;-55
2022/08/30 01:31:07;;;;;;;15.40;10.60;;;;;;;18.72;100.00;100296.05;1715120;83;20953;-56
2022/08/30 01:33:37;;;;;;;15.53;10.50;;;;;;;18.70;100.00;100294.94;1714891;83;21020;-56
2022/08/30 01:36:06;;;;;;;16.00;10.73;;;;;;;18.69;100.00;100302.55;1714598;83;21919;-62
2022/08/30 01:38:38;;;;;;;15.93;9.63;;;;;;;18.70;100.00;100297.58;1715645;83;21761;-58
2022/08/30 01:41:20;;;;;;;;;;;;;;;18.76;100.00;100299.02;1717585;83;21534;-57
2022/08/30 01:43:48;;;;;;;18.00;10.85;;;;;;;18.75;100.00;100296.87;1714604;83;20162;-65
2022/08/30 01:46:16;;;;;;;14.23;10.43;;;;;;;18.71;100.00;100298.37;1714938;83;21568;-55
2022/08/30 01:48:44;;;;;;;19.57;10.73;;;;;;;18.68;100.00;100293.56;1714921;83;21562;-58
2022/08/30 01:51:12;;;;;;;24.13;11.87;;;;;;;18.64;100.00;100300.35;1714633;83;21554;-55
2022/08/30 01:53:40;;;;;;;16.60;12.07;;;;;;;18.61;100.00;100297.66;1714335;83;20941;-60
2022/08/30 01:56:08;;;;;;;19.07;13.30;;;;;;;18.58;100.00;100296.80;1713558;83;21334;-57
2022/08/30 01:58:36;;;;;;;22.47;14.07;;;;;;;18.62;100.00;100294.49;1714597;83;21387;-57
2022/08/30 02:01:04;;;;;;;21.93;15.00;;;;;;;18.67;100.00;100299.86;1714736;83;21060;-56
2022/08/30 02:03:34;;;;;;;19.33;12.53;;;;;;;18.70;100.00;100302.03;1714620;83;20958;-58
2022/08/30 02:06:10;;;;;;;17.53;10.63;;;;;;;18.69;100.00;100298.59;1713939;83;20953;-58
2022/08/30 02:08:39;;;;;;;18.20;11.73;;;;;;;18.68;100.00;100298.32;1714875;83;21490;-56
2022/08/30 02:11:06;;;;;;;18.83;11.73;;;;;;;18.61;100.00;100299.50;1715131;83;21056;-57
2022/08/30 02:13:38;;;;;;;18.80;12.33;;;;;;;18.62;100.00;100300.56;1714706;83;21293;-63
2022/08/30 02:16:07;;;;;;;17.90;13.00;;;;;;;18.68;100.00;100304.92;1714757;83;21012;-57
2022/08/30 02:18:36;;;;;;;18.53;12.23;;;;;;;18.60;100.00;100307.94;1715296;83;20993;-57
2022/08/30 02:21:05;;;;;;;17.40;11.13;;;;;;;18.60;100.00;100312.39;1715228;83;20977;-55
2022/08/30 02:23:33;;;;;;;17.17;11.50;;;;;;;18.67;100.00;100312.53;1714821;83;20906;-64
2022/08/30 02:26:00;;;;;;;14.73;10.90;;;;;;;18.63;100.00;100310.09;1714002;83;21338;-56
2022/08/30 02:28:28;;;;;;;15.03;10.60;;;;;;;18.59;100.00;100308.95;1714713;83;20953;-56
2022/08/30 02:30:56;;;;;;;12.37;9.33;;;;;;;18.62;100.00;100314.29;1715113;83;20909;-56
2022/08/30 02:33:24;;;;;;;18.63;10.57;;;;;;;18.57;100.00;100312.88;1714864;83;21018;-56
2022/08/30 02:35:51;;;;;;;16.87;9.53;;;;;;;18.52;100.00;100316.20;1713951;83;20901;-63
2022/08/30 02:38:18;;;;;;;17.63;11.87;;;;;;;18.55;100.00;100314.94;1714261;83;22038;-56
2022/08/30 02:40:46;;;;;;;17.67;11.80;;;;;;;18.55;100.00;100320.22;1713869;83;21072;-56
2022/08/30 02:43:14;;;;;;;17.77;12.93;;;;;;;18.56;100.00;100314.73;1714062;83;21009;-63
2022/08/30 02:45:41;;;;;;;18.63;14.43;;;;;;;18.51;100.00;100318.56;1714032;83;20961;-57
2022/08/30 02:48:08;;;;;;;24.93;15.80;;;;;;;18.50;100.00;100320.12;1713601;83;21084;-57
2022/08/30 02:50:44;;;;;;;22.23;15.67;;;;;;;18.50;100.00;100315.65;1714124;83;21254;-55
2022/08/30 02:53:11;;;;;;;22.20;16.70;;;;;;;18.60;100.00;100321.14;1714378;83;20929;-62
2022/08/30 02:55:38;;;;;;;21.23;16.50;;;;;;;18.65;100.00;100326.51;1713523;83;21055;-57
2022/08/30 02:58:06;;;;;;;23.77;16.30;;;;;;;18.73;100.00;100324.56;1713919;83;21592;-59
2022/08/30 03:00:34;;;;;;;22.93;15.57;;;;;;;18.73;100.00;100324.56;1714157;83;22093;-55
2022/08/30 03:03:02;;;;;;;22.80;16.80;;;;;;;18.80;100.00;100319.95;1714753;83;21774;-55
2022/08/30 03:05:31;;;;;;;20.60;14.77;;;;;;;18.89;100.00;100323.28;1714010;83;20997;-57
2022/08/30 03:08:00;;;;;;;22.43;15.63;;;;;;;18.93;100.00;100323.62;1713582;83;21439;-57
2022/08/30 03:10:28;;;;;;;23.23;14.83;;;;;;;19.09;100.00;100322.05;1714401;83;21009;-55
2022/08/30 03:12:55;;;;;;;23.07;15.93;;;;;;;19.18;100.00;100318.00;1714425;83;21498;-56
2022/08/30 03:15:25;;;;;;;22.23;16.27;;;;;;;19.28;100.00;100320.82;1714501;83;21293;-56
2022/08/30 03:17:53;;;;;;;21.80;16.57;;;;;;;19.42;100.00;100327.38;1713992;83;21455;-56
2022/08/30 03:20:21;;;;;;;22.27;16.27;;;;;;;19.41;100.00;100329.75;1713159;83;21082;-55
2022/08/30 03:22:49;;;;;;;22.27;16.27;;;;;;;19.56;100.00;100317.83;1714461;83;21469;-55
2022/08/30 03:25:16;;;;;;;28.37;17.53;;;;;;;19.76;100.00;100321.33;1714374;83;21016;-56
2022/08/30 03:27:44;;;;;;;22.00;15.47;;;;;;;19.88;100.00;100327.31;1713686;83;21232;-63
2022/08/30 03:30:12;;;;;;;19.50;13.90;;;;;;;20.11;100.00;100333.73;1713902;83;21363;-55
2022/08/30 03:32:39;;;;;;;18.83;13.97;;;;;;;20.52;100.00;100331.64;1714282;83;21516;-56
2022/08/30 03:35:07;;;;;;;16.33;12.40;;;;;;;21.03;100.00;100334.86;1714570;83;21028;-55
2022/08/30 03:37:35;;;;;;;18.60;13.13;;;;;;;21.76;100.00;100327.80;1714476;83;21028;-61
2022/08/30 03:40:04;;;;;;;17.23;13.10;;;;;;;22.46;100.00;100330.58;1713598;83;21095;-60
2022/08/30 03:42:31;;;;;;;18.50;13.30;;;;;;;23.24;100.00;100326.54;1714666;83;21000;-55
2022/08/30 03:45:01;;;;;;;16.57;12.03;;;;;;;24.03;100.00;100318.50;1714642;83;23326;-55
2022/08/30 03:47:28;;;;;;;20.33;12.23;;;;;;;24.79;100.00;100312.60;1714593;83;21669;-56
2022/08/30 03:49:56;;;;;;;17.17;13.13;;;;;;;25.48;100.00;100303.56;1714154;83;21076;-61
2022/08/30 03:52:23;;;;;;;15.83;12.10;;;;;;;26.12;100.00;100300.26;1713938;83;22323;-57
2022/08/30 03:54:50;;;;;;;16.20;13.03;;;;;;;26.95;100.00;100290.63;1714277;83;21330;-56
2022/08/30 03:57:18;;;;;;;15.00;11.68;;;;;;;27.71;100.00;100287.22;1714270;83;20997;-57
2022/08/30 03:59:46;;;;;;;15.38;12.33;;;;;;;28.37;100.00;100285.93;1714623;83;21143;-60
2022/08/30 04:02:14;;;;;;;17.27;11.73;;;;;;;28.92;100.00;100289.00;1714059;83;21001;-62
2022/08/30 04:04:41;;;;;;;17.87;12.45;;;;;;;29.04;100.00;100283.34;1713783;83;21241;-56
2022/08/30 04:07:09;;;;;;;15.48;12.23;;;;;;;29.02;100.00;100281.53;1714517;83;21860;-56
2022/08/30 04:09:38;;;;;;;13.05;11.22;;;;;;;28.88;100.00;100290.16;1714465;83;21242;-55
2022/08/30 04:12:06;;;;;;;17.12;11.73;;;;;;;28.55;100.00;100295.72;1713425;83;20914;-58
2022/08/30 04:14:34;;;;;;;15.90;13.68;;;;;;;28.15;100.00;100297.38;1713767;83;21735;-56
2022/08/30 04:17:01;;;;;;;13.60;11.57;;;;;;;28.00;100.00;100302.48;1714217;83;21274;-56
2022/08/30 04:19:29;;;;;;;15.43;11.78;;;;;;;27.94;100.00;100300.99;1714574;83;20953;-56
2022/08/30 04:21:57;;;;;;;12.18;10.38;;;;;;;28.10;100.00;100300.14;1714887;83;21503;-57
2022/08/30 04:24:24;;;;;;;13.25;10.60;;;;;;;28.49;100.00;100302.83;1713608;83;21586;-62
2022/08/30 04:26:51;;;;;;;13.30;11.90;;;;;;;29.03;100.00;100296.53;1714160;83;21068;-57
2022/08/30 04:29:19;;;;;;;13.38;10.82;;;;;;;29.66;100.00;100301.39;1714753;83;21301;-56
2022/08/30 04:31:48;;;;;;;18.00;12.05;;;;;;;30.34;100.00;100298.46;1714241;83;21012;-56
2022/08/30 04:34:15;;;;;;;14.25;11.48;;;;;;;30.97;98.58;100299.77;1713527;83;21056;-56
2022/08/30 04:36:42;;;;;;;14.15;11.70;;;;;;;31.60;86.73;100302.83;1714009;83;21009;-63
2022/08/30 04:39:09;;;;;;;14.90;11.10;;;;;;;32.18;77.10;100310.16;1714584;83;21844;-56
2022/08/30 04:41:39;;;;;;;10.72;9.40;;;;;;;32.62;69.60;100311.25;1714084;83;22322;-56
2022/08/30 04:44:06;;;;;;;14.33;10.72;;;;;;;33.00;68.35;100307.05;1713472;83;21053;-58
2022/08/30 04:46:35;;;;;;;12.55;9.45;;;;;;;33.42;65.75;100314.47;1713948;83;21007;-60
2022/08/30 04:49:03;;;;;;;13.85;10.15;;;;;;;33.93;63.75;100310.12;1714521;83;21025;-57
2022/08/30 04:51:30;;;;;;;16.23;11.12;;;;;;;34.39;59.44;100306.69;1714830;83;20945;-56
2022/08/30 04:53:57;;;;;;;14.00;11.90;;;;;;;34.88;56.36;100309.25;1713761;83;21261;-58
2022/08/30 04:56:25;;;;;;;18.00;13.50;;;;;;;35.43;53.29;100308.98;1714341;83;21060;-62
2022/08/30 04:58:53;;;;;;;17.15;13.43;;;;;;;35.99;47.49;100306.65;1713974;83;21025;-58
2022/08/30 05:01:25;;;;;;;19.20;13.98;;;;;;;36.40;44.81;100306.56;1714286;83;21108;-56
2022/08/30 05:03:52;;;;;;;18.92;15.25;;;;;;;36.85;42.79;100307.87;1712521;83;21084;-57
2022/08/30 05:06:20;;;;;;;21.62;16.95;;;;;;;37.31;39.73;100306.58;1709274;83;21157;-63
2022/08/30 05:08:48;;;;;;;20.92;18.52;;;;;;;37.71;37.98;100303.95;1706203;84;20981;-54
2022/08/30 05:11:16;;;;;;;20.48;18.37;;;;;;;37.98;36.56;100301.45;1706360;83;21513;-54
2022/08/30 05:13:43;;;;;;;23.40;18.32;;;;;;;38.13;36.11;100296.99;1706111;83;20988;-54
2022/08/30 05:16:16;;;;;;;20.23;17.45;;;;;;;38.47;35.63;100300.36;1706747;84;21052;-54
2022/08/30 05:18:40;;;;;;;25.27;18.17;;;;;;;38.74;34.80;100300.47;1706356;83;21921;-61
2022/08/30 05:21:10;;;;;;;23.55;18.65;;;;;;;38.94;34.34;100300.50;1706012;83;21567;-61
2022/08/30 05:23:37;;;;;;;21.48;19.02;;;;;;;39.04;33.98;100300.99;1706569;83;20902;-54
2022/08/30 05:26:13;;;;;;;23.25;19.07;;;;;;;39.21;33.44;100297.66;1706586;84;21021;-55
2022/08/30 05:28:40;;;;;;;22.80;18.77;;;;;;;39.40;33.14;100297.45;1706434;84;21057;-54
2022/08/30 05:31:17;;;;;;;20.95;18.55;;;;;;;39.50;32.73;100304.13;1705554;84;21199;-55
2022/08/30 05:33:44;;;;;;;22.32;17.62;;;;;;;39.28;32.86;100302.39;1706638;84;21410;-53
2022/08/30 05:36:12;;;;;;;23.47;18.77;;;;;;;38.67;33.49;100302.53;1706815;84;21017;-54
2022/08/30 05:38:41;;;;;;;19.45;17.35;;;;;;;38.06;34.40;100296.89;1706590;84;21061;-62
2022/08/30 05:41:08;;;;;;;22.37;18.42;;;;;;;37.67;35.36;100299.03;1705787;84;22675;-60
2022/08/30 05:43:35;;;;;;;18.70;16.50;;;;;;;37.24;35.88;100297.75;1706229;84;21279;-54
2022/08/30 05:46:06;;;;;;;20.17;17.42;;;;;;;36.98;36.38;100295.73;1706284;84;21002;-54
2022/08/30 05:48:34;;;;;;;20.88;18.27;;;;;;;36.79;36.67;100293.03;1706436;84;21014;-63
2022/08/30 05:51:14;;;;;;;20.08;17.27;;;;;;;36.63;37.97;100299.09;1706486;84;20913;-54
2022/08/30 05:53:41;;;;;;;22.85;18.77;;;;;;;36.52;38.57;100308.38;1706565;84;21041;-54
2022/08/30 05:56:11;;;;;;;20.75;17.70;;;;;;;36.64;38.62;100310.20;1706653;84;21760;-54
2022/08/30 05:58:38;;;;;;;20.15;17.17;;;;;;;36.81;38.63;100299.45;1706124;84;20933;-54
2022/08/30 06:01:05;;;;;;;18.80;16.32;;;;;;;36.84;37.76;100305.53;1706476;84;21001;-57
2022/08/30 06:03:33;;;;;;;18.65;15.70;;;;;;;36.79;37.44;100306.61;1706006;83;20946;-54
2022/08/30 06:06:02;;;;;;;19.75;16.00;;;;;;;36.70;37.98;100307.38;1709575;83;21096;-54
2022/08/30 06:08:29;;;;;;;17.17;15.43;;;;;;;36.61;38.20;100308.97;1714371;83;22232;-61
2022/08/30 06:10:56;;;;;;;18.17;16.32;;;;;;;36.50;38.19;100311.47;1713839;83;21059;-55
2022/08/30 06:13:24;;;;;;;20.65;16.15;;;;;;;36.46;38.74;100307.89;1714122;83;21461;-64
2022/08/30 06:15:52;;;;;;;22.80;17.25;;;;;;;36.47;38.77;100305.39;1714015;83;21634;-55
2022/08/30 06:18:19;;;;;;;18.57;16.00;;;;;;;36.51;38.70;100304.89;1714800;83;20993;-58
2022/08/30 06:20:47;;;;;;;17.40;15.60;;;;;;;36.78;37.91;100305.02;1713930;83;21176;-63
2022/08/30 06:23:16;;;;;;;16.70;14.98;;;;;;;36.83;37.92;100300.67;1714587;83;21441;-55
2022/08/30 06:25:43;;;;;;;19.75;15.28;;;;;;;37.11;37.19;100309.14;1713930;83;21005;-55
2022/08/30 06:28:10;;;;;;;17.92;14.95;;;;;;;37.21;37.33;100307.20;1714410;83;21877;-55
2022/08/30 06:30:40;;;;;;;21.27;15.32;;;;;;;37.50;36.98;100305.75;1714539;83;21604;-63
2022/08/30 06:33:08;;;;;;;17.25;15.48;;;;;;;37.81;36.26;100308.77;1714433;83;21678;-55
2022/08/30 06:35:36;;;;;;;18.65;16.70;;;;;;;38.10;35.89;100310.55;1713851;83;20957;-59
2022/08/30 06:38:05;;;;;;;18.95;17.05;;;;;;;38.37;35.52;100309.95;1714372;83;21085;-56
2022/08/30 06:40:32;;;;;;;22.27;17.12;;;;;;;38.48;34.25;100311.45;1714160;83;20973;-63
2022/08/30 06:42:59;;;;;;;19.05;17.15;;;;;;;38.70;33.82;100310.55;1713845;83;20942;-56
2022/08/30 06:45:29;;;;;;;19.75;17.65;;;;;;;39.14;33.62;100307.91;1713918;83;21177;-64
2022/08/30 06:47:58;;;;;;;18.57;16.15;;;;;;;39.40;31.80;100309.72;1714096;83;21088;-55
2022/08/30 06:50:25;;;;;;;18.57;16.67;;;;;;;39.58;31.57;100308.47;1714664;83;21513;-56
2022/08/30 06:52:52;;;;;;;18.65;16.65;;;;;;;40.03;30.85;100306.45;1714804;83;21496;-61
2022/08/30 06:55:20;;;;;;;19.40;17.42;;;;;;;40.43;30.45;100303.94;1713473;83;21045;-56
2022/08/30 06:57:47;;;;;;;19.70;17.70;;;;;;;40.90;29.79;100310.32;1713982;83;21134;-55
2022/08/30 07:00:15;;;;;;;23.57;18.98;;;;;;;41.32;28.45;100303.53;1714177;83;21112;-56
2022/08/30 07:02:43;;;;;;;20.70;17.70;;;;;;;41.75;28.33;100302.16;1714760;83;21013;-55
2022/08/30 07:05:10;;;;;;;19.12;17.23;;;;;;;42.17;27.30;100302.46;1713710;83;20966;-65
2022/08/30 07:07:38;;;;;;;19.67;17.57;;;;;;;42.41;27.13;100309.80;1714296;83;21079;-56
2022/08/30 07:10:08;;;;;;;19.60;17.73;;;;;;;42.62;27.38;100299.89;1715196;83;21311;-57
2022/08/30 07:12:35;;;;;;;19.90;17.97;;;;;;;42.73;25.96;100298.67;1715371;83;21605;-55
2022/08/30 07:15:04;;;;;;;19.48;16.73;;;;;;;42.84;26.00;100295.09;1715251;83;21001;-55
2022/08/30 07:20:20;;;;;;;19.05;17.10;;;;;;;43.17;25.47;100287.62;1714777;83;21061;-56
2022/08/30 07:22:47;;;;;;;19.65;17.75;;;;;;;43.17;25.47;100287.62;1714415;83;21565;-62
2022/08/30 07:25:15;;;;;;;19.50;17.52;;;;;;;43.14;26.10;100290.39;1714243;83;21013;-59
2022/08/30 07:27:44;;;;;;;25.27;17.57;;;;;;;43.13;25.96;100294.33;1714617;83;20996;-56
2022/08/30 07:30:12;;;;;;;17.80;15.90;;;;;;;43.17;26.21;100296.44;1714443;83;21864;-56
2022/08/30 07:32:39;;;;;;;18.67;15.78;;;;;;;43.37;25.48;100289.80;1714684;83;21074;-56
2022/08/30 07:35:08;;;;;;;17.27;15.50;;;;;;;43.45;24.79;100294.80;1713691;83;21115;-58
2022/08/30 07:37:36;;;;;;;16.00;14.30;;;;;;;43.43;25.38;100293.67;1714213;83;21008;-57
2022/08/30 07:40:04;;;;;;;15.60;14.07;;;;;;;43.61;24.75;100291.56;1714619;83;21476;-57
2022/08/30 07:42:31;;;;;;;16.17;12.95;;;;;;;43.84;24.41;100288.17;1714418;83;21005;-57
2022/08/30 07:44:58;;;;;;;17.90;13.62;;;;;;;43.76;23.75;100289.45;1714815;83;21617;-57
2022/08/30 07:47:26;;;;;;;13.10;11.80;;;;;;;43.71;22.67;100280.27;1713925;83;21326;-60
2022/08/30 07:49:54;;;;;;;16.73;12.63;;;;;;;43.71;22.67;100280.27;1714620;83;21465;-57
2022/08/30 07:52:21;;;;;;;13.30;11.38;;;;;;;43.86;22.86;100283.63;1714761;83;21029;-56
2022/08/30 07:54:50;;;;;;;14.18;11.28;;;;;;;43.82;22.56;100278.78;1714691;83;21008;-56
2022/08/30 07:57:18;;;;;;;13.93;10.28;;;;;;;43.80;21.90;100274.30;1714126;83;21495;-63
2022/08/30 07:59:45;;;;;;;12.98;9.90;;;;;;;43.76;22.16;100274.91;1714311;83;22455;-56
2022/08/30 08:02:13;;;;;;;9.55;7.50;;;;;;;43.79;21.24;100278.99;1715324;83;20897;-56
2022/08/30 08:04:40;;;;;;;10.85;7.33;;;;;;;43.88;21.50;100272.46;1715381;83;21015;-56
2022/08/30 08:07:08;;;;;;;13.38;7.60;;;;;;;43.87;21.16;100277.78;1714784;83;21021;-60
2022/08/30 08:09:37;;;;;;;11.03;7.10;;;;;;;43.81;20.87;100275.26;1714531;83;22423;-56
2022/08/30 08:12:05;;;;;;;9.78;8.13;;;;;;;43.80;20.55;100272.34;1714302;83;21320;-56
2022/08/30 08:14:33;;;;;;;11.15;7.15;;;;;;;43.73;20.32;100266.92;1714771;83;21494;-56
2022/08/30 08:17:01;;;;;;;12.43;7.25;;;;;;;43.58;20.50;100265.52;1713946;83;21004;-60
2022/08/30 08:19:28;;;;;;;11.57;7.75;;;;;;;43.35;20.65;100264.14;1713657;83;21508;-57
2022/08/30 08:21:58;;;;;;;12.63;7.40;;;;;;;43.26;21.47;100259.70;1714234;83;21159;-57
2022/08/30 08:24:28;;;;;;;13.75;8.15;;;;;;;43.19;21.18;100259.20;1714460;83;21262;-56
2022/08/30 08:26:55;;;;;;;15.23;8.60;;;;;;;43.26;21.49;100250.70;1714401;83;21084;-63
2022/08/30 08:29:22;;;;;;;11.88;8.58;;;;;;;43.31;21.63;100263.40;1714322;83;21051;-56
2022/08/30 08:31:50;;;;;;;11.83;6.92;;;;;;;43.40;21.60;100260.95;1714287;83;21363;-55
2022/08/30 08:34:18;;;;;;;14.03;8.00;;;;;;;43.41;21.17;100255.64;1714536;83;21065;-57
2022/08/30 08:36:47;;;;;;;11.63;7.10;;;;;;;43.18;21.34;100252.13;1714605;83;21170;-64
2022/08/30 08:39:14;;;;;;;13.50;8.15;;;;;;;42.99;21.75;100251.30;1714046;83;22123;-56
2022/08/30 08:42:12;;;;;;;12.53;8.18;;;;;;;43.10;21.76;100246.53;1714734;83;20964;-58
2022/08/30 08:45:07;;;;;;;14.20;8.10;;;;;;;43.29;21.80;100246.55;1693903;83;21507;-58
2022/08/30 08:47:58;;;;;;;13.25;7.80;;;;;;;43.58;21.69;100247.08;1714907;83;21052;-56
2022/08/30 08:50:25;;;;;;;13.28;8.68;;;;;;;43.73;21.92;100240.06;1714973;83;21488;-56
2022/08/30 08:56:06;;;;;;;14.13;8.60;;;;;;;42.90;22.11;100240.02;1691560;83;21045;-56
2022/08/30 08:58:46;;;;;;;13.75;8.60;;;;;;;42.74;22.15;100240.54;1715194;83;21613;-57
2022/08/30 09:01:15;;;;;;;12.58;7.70;;;;;;;42.84;22.25;100234.17;1714019;83;21009;-57
2022/08/30 09:03:43;;;;;;;15.28;8.53;;;;;;;42.95;22.16;100234.87;1715343;83;27070;-55
2022/08/30 09:06:33;;;;;;;12.13;7.75;;;;;;;42.83;22.43;100227.14;1715070;83;21099;-56
2022/08/30 09:09:02;;;;;;;13.58;8.63;;;;;;;42.58;22.28;100223.17;1714252;83;20965;-57
2022/08/30 09:11:32;;;;;;;16.12;8.43;;;;;;;42.62;22.91;100229.44;1715294;83;22206;-56
2022/08/30 09:14:00;;;;;;;12.60;8.23;;;;;;;42.78;22.81;100218.58;1715105;83;21009;-56
2022/08/30 09:17:02;;;;;;;12.90;8.28;;;;;;;42.90;22.83;100222.20;1714688;83;21283;-56
2022/08/30 09:19:40;;;;;;;11.65;6.72;;;;;;;43.03;22.65;100217.76;1714570;83;21058;-56
2022/08/30 09:22:36;;;;;;;11.75;6.10;;;;;;;42.99;21.72;100208.78;1714099;83;21000;-62
2022/08/30 09:25:23;;;;;;;10.60;5.87;;;;;;;42.71;21.76;100214.70;1691484;83;21040;-57
2022/08/30 09:27:51;;;;;;;9.63;6.17;;;;;;;42.52;22.08;100213.84;1714112;83;20966;-55
2022/08/30 09:30:27;;;;;;;15.10;7.17;;;;;;;42.56;21.76;100211.84;1715026;83;22024;-56
2022/08/30 09:33:02;;;;;;;17.52;6.67;;;;;;;42.37;22.83;100204.92;1715318;83;21064;-56
2022/08/30 09:35:50;;;;;;;12.95;7.30;;;;;;;42.56;22.32;100207.73;1714106;83;20950;-59
2022/08/30 09:38:22;;;;;;;13.03;6.75;;;;;;;42.82;22.33;100206.99;1713249;83;21483;-56
2022/08/30 09:40:56;;;;;;;9.95;6.00;;;;;;;43.04;21.68;100202.88;1714480;83;21056;-56
2022/08/30 09:43:29;;;;;;;12.58;6.05;;;;;;;43.12;21.86;100205.00;1714637;83;21766;-56
2022/08/30 09:46:04;;;;;;;9.55;5.83;;;;;;;43.22;21.81;100204.87;1715298;83;20960;-55
2022/08/30 09:48:37;;;;;;;10.25;5.90;;;;;;;43.42;21.91;100200.19;1715115;83;20959;-55
2022/08/30 09:51:32;;;;;;;15.32;7.25;;;;;;;43.58;21.59;100201.02;1714409;83;20922;-56
2022/08/30 09:54:19;;;;;;;11.28;6.20;;;;;;;43.32;22.19;100199.09;1715304;83;21115;-56
2022/08/30 09:57:11;;;;;;;7.45;5.65;;;;;;;43.45;21.62;100196.59;1715142;83;22023;-56
2022/08/30 10:00:09;;;;;;;10.15;6.17;;;;;;;43.58;21.25;100196.89;1715197;83;21002;-63
2022/08/30 10:03:18;;;;;;;13.13;6.05;;;;;;;43.37;21.31;100193.75;1680684;85;20975;-58
2022/08/30 10:06:01;;;;;;;;;;;;;;;42.93;21.91;100195.34;1717796;83;21108;-56
2022/08/30 10:09:16;;;;;;;9.95;5.92;;;;;;;42.81;22.21;100188.40;1708872;83;20145;-56
2022/08/30 10:12:21;;;;;;;12.93;5.87;;;;;;;42.74;22.32;100186.48;1707040;83;21878;-56
2022/08/30 10:14:54;;;;;;;11.75;5.53;;;;;;;42.87;21.82;100184.61;1706656;83;20998;-56
2022/08/30 10:17:37;;;;;;;12.47;5.58;;;;;;;43.05;22.14;100177.00;1706755;83;20985;-56
2022/08/30 10:20:16;;;;;;;11.85;5.45;;;;;;;43.16;21.46;100178.30;1706633;83;21109;-56
2022/08/30 10:22:54;;;;;;;9.50;5.70;;;;;;;43.18;21.29;100172.58;1707388;84;21065;-57
2022/08/30 10:25:35;;;;;;;11.28;5.83;;;;;;;43.15;21.50;100178.91;1706142;84;21251;-58
2022/08/30 10:28:10;;;;;;;10.60;5.55;;;;;;;43.18;21.86;100182.18;1707218;84;21017;-56
2022/08/30 10:30:39;;;;;;;9.40;5.42;;;;;;;43.23;21.88;100171.38;1707113;84;20993;-57
2022/08/30 10:33:27;;;;;;;8.83;5.50;;;;;;;43.23;21.96;100163.92;1685765;84;26352;-58
2022/08/30 10:35:57;;;;;;;10.70;5.70;;;;;;;43.09;21.73;100171.52;1706926;84;21047;-56
2022/08/30 10:38:36;;;;;;;10.48;5.10;;;;;;;42.96;21.92;100168.45;1707278;84;21121;-63
2022/08/30 10:41:28;;;;;;;9.75;5.42;;;;;;;42.80;22.17;100164.11;1707145;84;22540;-55
2022/08/30 10:44:22;;;;;;;10.90;6.33;;;;;;;42.61;22.86;100162.08;1706901;83;21551;-62
2022/08/30 10:47:40;;;;;;;12.65;5.78;;;;;;;42.38;23.38;100172.83;1673419;85;21025;-56
2022/08/30 10:50:21;;;;;;;9.95;5.78;;;;;;;42.25;23.17;100163.72;1672517;85;20957;-58
2022/08/30 10:53:18;;;;;;;15.10;6.08;;;;;;;42.11;22.74;100168.47;1705908;83;21181;-58
2022/08/30 10:56:02;;;;;;;13.08;6.42;;;;;;;42.08;22.69;100159.08;1672553;85;21501;-57
2022/08/30 10:58:30;;;;;;;10.93;5.53;;;;;;;42.24;22.35;100162.16;1705866;83;22171;-60
2022/08/30 11:01:25;;;;;;;9.88;5.62;;;;;;;42.32;22.35;100165.64;1707097;84;20945;-56
2022/08/30 11:04:38;;;;;;;11.73;5.60;;;;;;;42.46;22.42;100159.26;1705739;83;21013;-63
2022/08/30 11:07:13;;;;;;;12.20;6.10;;;;;;;42.46;22.78;100159.26;1705901;83;21626;-64
2022/08/30 11:10:04;;;;;;;9.45;5.12;;;;;;;42.44;22.84;100158.30;1672742;85;21860;-56
2022/08/30 11:12:37;;;;;;;10.72;5.33;;;;;;;42.60;22.68;100155.05;1672687;85;21000;-62
2022/08/30 11:15:15;;;;;;;10.03;5.72;;;;;;;42.62;21.98;100151.32;1699697;83;21131;-56
2022/08/30 11:18:04;;;;;;;9.18;5.05;;;;;;;42.33;22.60;100154.08;1687129;84;20957;-56
2022/08/30 11:20:48;;;;;;;13.60;6.15;;;;;;;42.33;22.06;100145.27;1706222;83;21182;-58
2022/08/30 11:23:21;;;;;;;10.13;5.28;;;;;;;42.36;22.03;100148.58;1706032;84;21084;-56
2022/08/30 11:26:04;;;;;;;11.48;6.15;;;;;;;42.24;22.44;100141.63;1706142;83;21077;-65
2022/08/30 11:28:40;;;;;;;10.03;5.20;;;;;;;42.08;22.27;100149.50;1706328;84;21037;-56
2022/08/30 11:31:30;;;;;;;10.45;5.33;;;;;;;41.84;22.60;100145.73;1702118;83;21721;-56
2022/08/30 11:33:58;;;;;;;;;;;;;;;41.88;23.18;100142.97;1708228;84;21505;-65
2022/08/30 11:36:37;;;;;;;15.93;5.90;;;;;;;41.93;22.92;100141.17;1685936;84;20552;-56
2022/08/30 11:39:11;;;;;;;8.83;5.17;;;;;;;41.92;22.00;100140.99;1706405;83;21065;-56